Time;durP1;ratioP1;P1;durP2;ratioP2;P2;SDS_P1;SDS_P2;PMS_P1;PMS_P2;Temp;Humidity;BMP_temperature;BMP_pressure;BME280_temperature;BME280_humidity;BME280_pressure;Samples;Min_cycle;Max_cycle;Signal;HPM_P1;HPM_P2
2022/02/02 00:00:18;;;;;;;0.20;0.20;;;;;;;4.97;100.00;98254.75;4910915;29;20183;-79
2022/02/02 00:02:57;;;;;;;0.20;0.20;;;;;;;5.11;100.00;98261.59;4912167;29;20221;-80
2022/02/02 00:05:38;;;;;;;0.23;0.23;;;;;;;5.08;100.00;98256.72;4912606;29;20186;-80
2022/02/02 00:08:11;;;;;;;0.30;0.30;;;;;;;5.10;100.00;98249.34;4913685;29;20197;-80
2022/02/02 00:11:22;;;;;;;0.20;0.20;;;;;;;5.19;100.00;98260.47;4926700;29;20185;-79
2022/02/02 00:19:09;;;;;;;0.20;0.20;;;;;;;5.11;100.00;98266.06;4897157;29;20570;-79
2022/02/02 00:21:44;;;;;;;0.30;0.30;;;;;;;5.04;100.00;98262.69;4927012;29;20215;-79
2022/02/02 00:24:24;;;;;;;0.83;0.30;;;;;;;5.13;100.00;98277.31;4896519;29;20675;-79
2022/02/02 00:26:55;;;;;;;0.30;0.23;;;;;;;5.04;100.00;98258.16;4927752;29;20205;-79
2022/02/02 00:29:31;;;;;;;0.20;0.20;;;;;;;5.00;100.00;98274.75;4910667;29;20187;-79
2022/02/02 00:32:11;;;;;;;0.33;0.23;;;;;;;5.02;100.00;98285.97;4911757;29;20186;-79
2022/02/02 00:34:38;;;;;;;0.20;0.20;;;;;;;4.87;100.00;98289.75;4909400;29;20226;-79
2022/02/02 00:37:05;;;;;;;0.20;0.20;;;;;;;4.93;100.00;98266.03;4893318;29;20277;-79
2022/02/02 00:39:32;;;;;;;0.20;0.20;;;;;;;4.94;100.00;98283.59;4926401;29;20198;-79
2022/02/02 00:42:02;;;;;;;0.53;0.30;;;;;;;5.03;100.00;98276.97;4926275;29;20194;-80
2022/02/02 00:44:29;;;;;;;0.30;0.30;;;;;;;4.85;100.00;98281.16;4894507;29;20207;-80
2022/02/02 00:46:57;;;;;;;0.20;0.20;;;;;;;4.94;100.00;98278.28;4909558;29;20218;-80
2022/02/02 00:49:25;;;;;;;0.40;0.37;;;;;;;4.85;100.00;98262.59;4927192;29;20617;-79
2022/02/02 00:51:57;;;;;;;0.60;0.23;;;;;;;4.99;100.00;98273.94;4909694;29;20215;-79
2022/02/02 00:54:27;;;;;;;0.27;0.27;;;;;;;4.96;100.00;98263.75;4911218;29;20233;-79
2022/02/02 00:56:55;;;;;;;0.30;0.30;;;;;;;5.01;100.00;98244.50;4926105;29;20209;-80
2022/02/02 00:59:25;;;;;;;0.27;0.27;;;;;;;4.99;100.00;98222.69;4910224;29;20191;-79
2022/02/02 01:01:52;;;;;;;0.30;0.30;;;;;;;5.09;100.00;98239.75;4909263;29;20289;-80
2022/02/02 01:04:20;;;;;;;0.30;0.30;;;;;;;5.07;100.00;98238.34;4926003;29;20202;-80
2022/02/02 01:07:07;;;;;;;0.37;0.37;;;;;;;5.05;100.00;98235.09;4909423;29;20189;-79
2022/02/02 01:12:39;;;;;;;0.60;0.40;;;;;;;5.26;100.00;98240.81;4926516;29;20178;-79
2022/02/02 01:28:18;;;;;;;1.17;0.30;;;;;;;5.24;100.00;98213.66;4912204;29;20202;-79
2022/02/02 01:30:45;;;;;;;0.33;0.33;;;;;;;5.14;100.00;98218.66;4909836;29;20210;-79
2022/02/02 01:33:12;;;;;;;1.07;0.40;;;;;;;5.31;100.00;98219.72;4928070;29;20293;-80
2022/02/02 01:35:39;;;;;;;0.40;0.40;;;;;;;5.26;100.00;98210.78;4894719;29;20225;-79
2022/02/02 01:38:06;;;;;;;0.70;0.60;;;;;;;5.27;100.00;98215.09;4910310;29;20253;-79
2022/02/02 01:40:39;;;;;;;0.50;0.50;;;;;;;5.18;100.00;98219.06;4911255;29;20202;-79
2022/02/02 01:43:15;;;;;;;0.40;0.40;;;;;;;5.05;100.00;98217.31;4927007;29;20186;-79
2022/02/02 01:45:56;;;;;;;0.70;0.50;;;;;;;5.19;100.00;98210.84;4927179;29;20186;-79
2022/02/02 01:48:45;;;;;;;0.60;0.50;;;;;;;5.07;100.00;98204.66;4896069;29;20233;-79
2022/02/02 01:56:26;;;;;;;0.30;0.30;;;;;;;5.11;100.00;98208.50;4913107;29;20657;-79
2022/02/02 02:01:27;;;;;;;0.63;0.43;;;;;;;5.09;100.00;98199.09;4898410;29;20202;-80
2022/02/02 02:03:56;;;;;;;0.60;0.40;;;;;;;5.16;100.00;98189.25;4914763;29;20179;-79
2022/02/02 02:06:24;;;;;;;0.57;0.40;;;;;;;5.14;100.00;98199.25;4913331;29;20250;-79
2022/02/02 02:08:57;;;;;;;0.70;0.40;;;;;;;5.28;100.00;98198.91;4929219;29;20191;-81
2022/02/02 02:11:24;;;;;;;0.57;0.40;;;;;;;5.26;100.00;98194.88;4896934;29;20190;-79
2022/02/02 02:16:37;;;;;;;0.40;0.40;;;;;;;5.31;100.00;98185.22;4930235;29;20179;-80
2022/02/02 02:19:04;;;;;;;0.30;0.30;;;;;;;5.38;100.00;98214.34;4914610;29;20190;-79
2022/02/02 02:21:31;;;;;;;0.30;0.30;;;;;;;5.42;100.00;98209.38;4914600;29;20197;-79
2022/02/02 02:24:00;;;;;;;0.40;0.37;;;;;;;5.41;100.00;98223.72;4897787;29;20265;-79
2022/02/02 02:26:29;;;;;;;0.80;0.40;;;;;;;5.28;100.00;98244.06;4915147;29;20182;-80
2022/02/02 02:36:57;;;;;;;0.50;0.30;;;;;;;4.88;100.00;98250.75;4930178;29;20206;-79
2022/02/02 02:55:56;;;;;;;0.20;0.20;;;;;;;4.45;100.00;98240.03;4896363;29;20207;-80
2022/02/02 03:01:21;;;;;;;0.20;0.20;;;;;;;4.29;100.00;98261.78;4892260;29;20199;-80
2022/02/02 03:51:06;;;;;;;0.80;0.70;;;;;;;4.91;100.00;98294.63;4912548;29;20187;-80
2022/02/02 04:04:16;;;;;;;0.50;0.50;;;;;;;4.94;100.00;98273.78;4928071;29;20209;-80
2022/02/02 04:06:57;;;;;;;0.50;0.50;;;;;;;5.11;100.00;98274.84;4927601;29;20182;-79
2022/02/02 04:09:25;;;;;;;0.60;0.57;;;;;;;5.18;100.00;98278.25;4910988;29;20206;-79
2022/02/02 04:12:03;;;;;;;0.60;0.50;;;;;;;5.18;100.00;98277.47;4910806;29;20688;-80
2022/02/02 05:20:28;;;;;;;0.30;0.30;;;;;;;4.69;100.00;98318.03;4912774;29;20179;-80
2022/02/02 05:52:12;;;;;;;1.40;0.47;;;;;;;4.41;100.00;98366.13;4890126;29;20238;-81
2022/02/02 05:54:39;;;;;;;1.00;0.73;;;;;;;4.27;100.00;98349.47;4890660;29;20209;-81
2022/02/02 05:57:14;;;;;;;0.60;0.60;;;;;;;4.19;100.00;98351.53;4879265;29;20224;-81
2022/02/02 05:59:43;;;;;;;1.97;0.60;;;;;;;4.33;100.00;98350.47;4910934;29;20186;-81
2022/02/02 06:02:13;;;;;;;0.70;0.47;;;;;;;4.06;100.00;98347.09;4897399;29;20289;-81
2022/02/02 06:04:46;;;;;;;0.80;0.70;;;;;;;4.03;100.00;98360.75;4897699;29;20202;-81
2022/02/02 06:07:14;;;;;;;1.93;0.53;;;;;;;4.19;100.00;98386.81;4897126;29;20202;-82
2022/02/02 06:09:46;;;;;;;0.70;0.70;;;;;;;4.05;100.00;98377.28;4897453;29;20478;-81
2022/02/02 06:12:19;;;;;;;1.57;0.87;;;;;;;4.14;100.00;98389.28;4897512;29;20206;-82
2022/02/02 06:14:49;;;;;;;1.77;1.10;;;;;;;4.26;100.00;98397.41;4913721;29;20185;-81
2022/02/02 06:17:20;;;;;;;1.10;1.00;;;;;;;4.34;100.00;98394.50;4930503;29;20222;-81
2022/02/02 06:19:47;;;;;;;1.00;0.90;;;;;;;4.13;100.00;98381.53;4931675;29;20198;-81
2022/02/02 06:22:20;;;;;;;1.77;1.10;;;;;;;4.03;100.00;98383.81;4914842;29;20187;-81
2022/02/02 06:25:17;;;;;;;1.63;1.20;;;;;;;4.05;100.00;98410.94;4913690;29;20246;-80
2022/02/02 06:27:47;;;;;;;1.83;1.30;;;;;;;3.96;100.00;98400.56;4929180;29;20242;-81
2022/02/02 06:30:14;;;;;;;1.87;1.20;;;;;;;3.99;100.00;98412.56;4896167;29;20197;-81
2022/02/02 06:32:52;;;;;;;3.90;1.23;;;;;;;4.13;100.00;98424.75;4895584;29;20202;-81
2022/02/02 06:35:21;;;;;;;3.50;1.30;;;;;;;4.22;100.00;98423.50;4896480;29;20210;-81
2022/02/02 06:37:50;;;;;;;2.73;1.37;;;;;;;4.29;100.00;98431.47;4912609;29;20192;-81
2022/02/02 06:40:19;;;;;;;1.77;1.37;;;;;;;4.29;100.00;98420.84;4896855;29;20198;-81
2022/02/02 06:42:46;;;;;;;1.50;1.17;;;;;;;4.46;100.00;98423.84;4910670;29;20501;-80
2022/02/02 06:45:13;;;;;;;1.43;1.10;;;;;;;4.43;100.00;98419.78;4927260;29;20385;-81
2022/02/02 06:47:41;;;;;;;1.00;0.90;;;;;;;4.68;100.00;98415.38;4895955;29;20246;-81
2022/02/02 06:50:15;;;;;;;1.27;0.87;;;;;;;4.67;100.00;98411.09;4879739;29;20194;-81
2022/02/02 06:53:05;;;;;;;1.07;0.90;;;;;;;4.92;100.00;98429.75;4897547;29;20183;-81
2022/02/02 06:55:41;;;;;;;2.33;0.80;;;;;;;5.04;100.00;98433.34;4897223;29;20187;-82
2022/02/02 06:58:24;;;;;;;2.53;0.87;;;;;;;5.06;100.00;98427.84;4896460;29;20186;-81
2022/02/02 07:01:34;;;;;;;1.87;0.80;;;;;;;5.31;100.00;98437.50;4912339;29;20194;-81
2022/02/02 07:04:04;;;;;;;0.97;0.87;;;;;;;5.44;100.00;98428.63;4913108;29;20195;-81
2022/02/02 07:09:52;;;;;;;2.13;0.80;;;;;;;5.70;100.00;98451.50;4925955;29;20246;-81
2022/02/02 07:17:12;;;;;;;2.10;0.97;;;;;;;5.86;100.00;98469.59;4907839;29;20222;-81
2022/02/02 07:19:48;;;;;;;1.57;0.60;;;;;;;5.87;100.00;98479.22;4907856;29;20197;-80
2022/02/02 07:22:26;;;;;;;1.17;0.70;;;;;;;5.84;100.00;98484.09;4877795;29;20516;-81
2022/02/02 07:32:22;;;;;;;2.17;0.70;;;;;;;5.68;100.00;98477.50;4904630;29;20190;-81
2022/02/02 07:38:10;;;;;;;0.87;0.70;;;;;;;5.82;100.00;98502.94;4915346;29;20230;-81
2022/02/02 07:40:41;;;;;;;1.50;0.90;;;;;;;5.75;100.00;98508.31;4892671;29;20198;-81
2022/02/02 07:43:10;;;;;;;1.60;0.90;;;;;;;5.56;100.00;98495.16;4909222;29;20186;-82
2022/02/02 07:45:36;;;;;;;1.17;0.60;;;;;;;5.61;100.00;98495.31;4909076;29;20624;-82
2022/02/02 07:48:05;;;;;;;1.50;0.80;;;;;;;5.73;100.00;98493.63;4908752;29;20230;-81
2022/02/02 07:50:36;;;;;;;1.33;0.70;;;;;;;5.71;100.00;98524.91;4891309;29;20199;-81
2022/02/02 07:53:10;;;;;;;1.17;0.60;;;;;;;5.75;100.00;98515.47;4908989;29;20587;-82
2022/02/02 07:55:39;;;;;;;1.03;0.80;;;;;;;5.62;100.00;98511.06;4909628;29;20221;-82
2022/02/02 07:58:08;;;;;;;1.60;0.70;;;;;;;5.67;100.00;98497.13;4894093;29;20514;-82
2022/02/02 08:00:36;;;;;;;1.23;0.70;;;;;;;5.70;100.00;98486.88;4924631;29;20302;-81
2022/02/02 08:05:32;;;;;;;1.03;0.63;;;;;;;5.75;100.00;98480.91;4908635;29;20281;-82
2022/02/02 08:10:29;;;;;;;1.10;0.73;;;;;;;5.56;100.00;98492.50;4924923;29;20190;-82
2022/02/02 08:13:01;;;;;;;1.13;0.70;;;;;;;5.50;100.00;98517.28;4908571;29;20217;-81
2022/02/02 08:15:32;;;;;;;1.90;0.60;;;;;;;5.42;100.00;98517.50;4908994;29;20262;-82
2022/02/02 08:17:59;;;;;;;1.40;0.60;;;;;;;5.32;100.00;98521.44;4925839;29;20674;-82
2022/02/02 08:20:26;;;;;;;1.10;0.67;;;;;;;5.36;100.00;98526.34;4894014;29;20186;-82
2022/02/02 08:22:54;;;;;;;1.53;0.70;;;;;;;5.09;100.00;98515.03;4894236;29;20595;-82
2022/02/02 08:25:26;;;;;;;1.50;0.87;;;;;;;5.22;100.00;98523.78;4877981;29;20262;-82
2022/02/02 08:27:57;;;;;;;0.80;0.70;;;;;;;5.09;100.00;98509.72;4894439;29;20197;-82
2022/02/02 08:30:27;;;;;;;2.30;0.80;;;;;;;5.11;100.00;98499.72;4893267;29;20215;-82
2022/02/02 08:33:01;;;;;;;1.57;0.70;;;;;;;5.11;100.00;98516.47;4892700;29;20198;-82
2022/02/02 08:35:31;;;;;;;1.03;0.53;;;;;;;5.01;100.00;98526.72;4892582;29;20571;-82
2022/02/02 08:38:10;;;;;;;1.87;0.70;;;;;;;5.04;100.00;98530.81;4892859;29;20203;-82
2022/02/02 08:40:45;;;;;;;1.20;0.80;;;;;;;5.14;100.00;98544.41;4892244;29;20208;-81
2022/02/02 08:43:17;;;;;;;1.67;1.00;;;;;;;5.04;100.00;98552.81;4893635;29;20502;-82
2022/02/02 08:45:46;;;;;;;1.73;0.80;;;;;;;5.06;100.00;98544.66;4893597;29;20579;-82
2022/02/02 08:48:19;;;;;;;2.20;1.10;;;;;;;5.02;100.00;98541.63;4892442;29;20541;-82
2022/02/02 08:50:54;;;;;;;1.73;0.80;;;;;;;5.05;100.00;98535.88;4889017;29;20183;-82
2022/02/02 08:58:34;;;;;;;1.73;0.63;;;;;;;5.62;100.00;98536.81;4879838;29;20226;-81
2022/02/02 09:01:07;;;;;;;1.57;0.80;;;;;;;5.82;100.00;98542.81;4887468;29;20203;-81
2022/02/02 09:06:20;;;;;;;1.97;1.00;;;;;;;6.09;100.00;98512.38;4893431;29;20197;-81
2022/02/02 09:08:49;;;;;;;0.87;0.70;;;;;;;6.27;100.00;98522.22;4890103;29;20479;-81
2022/02/02 09:25:07;;;;;;;1.80;1.03;;;;;;;6.84;100.00;98547.66;4892750;29;20575;-82
2022/02/02 09:35:53;;;;;;;1.33;0.70;;;;;;;7.67;100.00;98566.47;4893608;29;20201;-82
2022/02/02 09:38:20;;;;;;;1.27;0.80;;;;;;;7.58;100.00;98562.50;4875577;29;20626;-82
2022/02/02 09:43:26;;;;;;;2.70;0.80;;;;;;;7.07;100.00;98552.31;4908362;29;20193;-82
2022/02/02 09:46:01;;;;;;;2.97;0.87;;;;;;;7.11;100.00;98571.31;4892718;29;20233;-81
2022/02/02 09:48:44;;;;;;;1.57;0.80;;;;;;;6.93;100.00;98566.81;4888712;29;20222;-82
2022/02/02 09:51:27;;;;;;;1.83;0.70;;;;;;;7.13;100.00;98579.91;4888933;29;20580;-82
2022/02/02 09:54:02;;;;;;;1.80;0.80;;;;;;;7.09;100.00;98563.56;4874632;29;20289;-81
2022/02/02 10:05:13;;;;;;;2.47;0.77;;;;;;;7.56;94.04;98590.44;4886677;29;20583;-81
2022/02/02 10:15:46;;;;;;;2.83;1.00;;;;;;;7.61;100.00;98580.72;4891616;29;20352;-82
2022/02/02 10:18:22;;;;;;;1.97;0.90;;;;;;;7.42;100.00;98568.44;4887406;29;20665;-81
2022/02/02 10:20:54;;;;;;;2.50;0.80;;;;;;;7.56;100.00;98561.13;4887735;29;20193;-80
2022/02/02 10:23:29;;;;;;;2.20;0.80;;;;;;;7.69;100.00;98574.25;4887319;29;20530;-81
2022/02/02 10:26:12;;;;;;;2.37;0.90;;;;;;;7.77;100.00;98576.59;4871808;29;20210;-81
2022/02/02 10:28:38;;;;;;;3.37;1.03;;;;;;;8.03;100.00;98575.38;4871967;29;20190;-81
2022/02/02 10:31:06;;;;;;;3.20;0.97;;;;;;;8.47;96.67;98547.41;4887353;29;20626;-81
2022/02/02 10:33:34;;;;;;;2.20;0.90;;;;;;;8.65;96.21;98572.13;4887612;29;20183;-81
2022/02/02 10:36:16;;;;;;;1.80;0.90;;;;;;;8.80;92.99;98572.47;4887196;29;20607;-81
2022/02/02 10:38:59;;;;;;;1.70;0.67;;;;;;;8.61;90.67;98554.97;4872823;29;20176;-81
2022/02/02 10:41:49;;;;;;;2.60;1.20;;;;;;;8.58;97.17;98554.63;4872535;29;20188;-81
2022/02/02 10:44:31;;;;;;;2.10;0.90;;;;;;;8.50;88.91;98542.41;4887328;29;20576;-80
2022/02/02 10:47:17;;;;;;;4.97;1.00;;;;;;;9.22;86.53;98561.59;4864497;29;20234;-80
2022/02/02 10:55:49;;;;;;;3.07;0.87;;;;;;;8.06;100.00;98585.63;4897949;29;20206;-81
2022/02/02 10:58:30;;;;;;;3.03;0.80;;;;;;;7.44;100.00;98607.19;4912114;29;20651;-82
2022/02/02 11:01:22;;;;;;;3.77;0.90;;;;;;;7.06;100.00;98614.59;4892929;29;20262;-81
2022/02/02 11:06:45;;;;;;;2.20;0.80;;;;;;;6.11;100.00;98637.13;4913132;29;20206;-81
2022/02/02 11:09:18;;;;;;;2.80;1.00;;;;;;;5.58;100.00;98636.59;4892761;29;20198;-82
2022/02/02 11:11:56;;;;;;;4.70;1.57;;;;;;;5.64;100.00;98631.25;4893753;29;20201;-82
2022/02/02 11:14:44;;;;;;;2.20;1.20;;;;;;;5.74;100.00;98622.78;4893658;29;20209;-82
2022/02/02 11:17:20;;;;;;;1.30;0.90;;;;;;;5.89;100.00;98611.91;4892299;29;20222;-82
2022/02/02 11:19:49;;;;;;;2.43;1.00;;;;;;;6.05;100.00;98606.09;4891776;29;20206;-82
2022/02/02 11:22:19;;;;;;;3.43;1.37;;;;;;;6.46;100.00;98602.91;4906096;29;20187;-81
2022/02/02 11:24:46;;;;;;;1.63;1.00;;;;;;;6.84;100.00;98603.56;4908433;29;20190;-82
2022/02/02 11:27:50;;;;;;;1.67;1.00;;;;;;;6.77;100.00;98620.63;4890464;29;20186;-81
2022/02/02 11:30:23;;;;;;;1.57;1.00;;;;;;;6.84;100.00;98611.56;4906008;29;20186;-82
2022/02/02 11:33:00;;;;;;;2.57;0.97;;;;;;;6.86;100.00;98612.13;4907363;29;20202;-81
2022/02/02 11:38:27;;;;;;;2.47;1.00;;;;;;;6.86;100.00;98596.16;4906824;29;20304;-80
2022/02/02 11:41:03;;;;;;;2.57;1.10;;;;;;;6.91;100.00;98604.28;4890834;29;20298;-82
2022/02/02 11:43:46;;;;;;;2.93;1.10;;;;;;;6.57;100.00;98611.00;4908863;29;20183;-82
2022/02/02 11:46:52;;;;;;;2.20;1.00;;;;;;;6.40;100.00;98612.56;4906842;29;20213;-81
2022/02/02 11:49:22;;;;;;;11.50;5.83;;;;;;;6.27;100.00;98636.59;4891895;29;20480;-81
2022/02/02 11:51:51;;;;;;;2.30;0.90;;;;;;;4.84;100.00;98635.19;4907568;29;20209;-81
2022/02/02 11:54:18;;;;;;;1.90;0.57;;;;;;;3.99;100.00;98653.72;4871650;29;20214;-81
2022/02/02 11:57:16;;;;;;;1.77;0.50;;;;;;;3.12;100.00;98669.50;4918947;29;20195;-81
2022/02/02 12:00:31;;;;;;;1.70;0.40;;;;;;;2.46;100.00;98647.06;4864259;29;20195;-84
2022/02/02 12:09:35;;;;;;;2.90;0.90;;;;;;;3.94;100.00;98638.44;4858264;29;20198;-84
2022/02/02 12:50:14;;;;;;;2.37;0.60;;;;;;;6.58;100.00;98670.31;4913837;29;20238;-83
2022/02/02 12:58:35;;;;;;;1.13;0.50;;;;;;;6.94;100.00;98649.16;4889451;29;20208;-83
2022/02/02 13:01:22;;;;;;;1.23;0.50;;;;;;;6.99;100.00;98627.19;4870285;29;20289;-84
2022/02/02 13:03:58;;;;;;;1.03;0.60;;;;;;;6.99;100.00;98643.97;4862515;29;20303;-83
2022/02/02 13:06:48;;;;;;;1.73;0.50;;;;;;;6.92;100.00;98653.84;4889025;29;20258;-83
2022/02/02 13:09:25;;;;;;;1.23;0.83;;;;;;;6.92;100.00;98645.88;4873994;29;20206;-83
2022/02/02 13:11:57;;;;;;;1.90;0.60;;;;;;;6.87;100.00;98685.66;4871573;29;20203;-83
2022/02/02 13:14:39;;;;;;;2.37;0.90;;;;;;;6.88;100.00;98691.78;4887608;29;20223;-82
2022/02/02 13:17:06;;;;;;;1.50;0.50;;;;;;;6.77;100.00;98688.00;4885758;29;20664;-83
2022/02/02 13:19:38;;;;;;;0.63;0.40;;;;;;;6.73;100.00;98713.41;4884166;29;20200;-83
2022/02/02 13:22:11;;;;;;;2.27;0.80;;;;;;;6.57;100.00;98688.16;4886389;29;20208;-82
2022/02/02 13:24:38;;;;;;;1.33;0.67;;;;;;;6.61;100.00;98689.38;4889839;29;20253;-83
2022/02/02 13:27:15;;;;;;;2.90;0.70;;;;;;;6.51;100.00;98697.00;4908649;29;20198;-82
2022/02/02 13:29:47;;;;;;;1.00;0.33;;;;;;;6.74;100.00;98700.94;4909172;29;20186;-82
2022/02/02 13:32:28;;;;;;;1.90;0.70;;;;;;;7.01;100.00;98695.16;4895080;29;20522;-83
2022/02/02 13:35:15;;;;;;;1.27;0.70;;;;;;;7.30;100.00;98708.81;4910680;29;20263;-82
2022/02/02 13:38:04;;;;;;;2.13;0.70;;;;;;;7.41;100.00;98684.09;4925566;29;20210;-82
2022/02/02 13:44:27;;;;;;;1.73;0.63;;;;;;;7.52;100.00;98708.16;4882939;29;20214;-82
2022/02/02 13:49:51;;;;;;;5.73;0.90;;;;;;;7.61;100.00;98727.31;4920048;29;20306;-82
2022/02/02 13:55:49;;;;;;;1.60;0.67;;;;;;;7.68;100.00;98745.94;4875121;29;20200;-83
2022/02/02 13:58:36;;;;;;;0.97;0.60;;;;;;;7.58;100.00;98732.28;4922408;29;20285;-83
2022/02/02 14:01:15;;;;;;;2.03;0.60;;;;;;;7.45;100.00;98758.06;4909597;29;20206;-83
2022/02/02 14:06:37;;;;;;;2.20;0.70;;;;;;;7.34;100.00;98742.78;4897181;29;20223;-82
2022/02/02 14:31:33;;;;;;;1.73;0.90;;;;;;;6.79;100.00;98792.44;4906953;29;20182;-83
2022/02/02 14:34:21;;;;;;;2.63;0.70;;;;;;;6.79;100.00;98794.28;4877514;29;20191;-82
2022/02/02 14:36:50;;;;;;;2.63;1.20;;;;;;;6.67;100.00;98793.34;4873718;29;20295;-83
2022/02/02 14:39:23;;;;;;;2.07;0.90;;;;;;;6.66;100.00;98805.00;4880720;29;20229;-83
2022/02/02 14:41:56;;;;;;;2.13;0.70;;;;;;;6.64;100.00;98816.69;4892176;29;20293;-83
2022/02/02 14:44:31;;;;;;;2.93;0.83;;;;;;;6.64;100.00;98818.53;4908305;29;20232;-82
2022/02/02 14:47:24;;;;;;;1.47;0.57;;;;;;;6.84;100.00;98805.09;4895594;29;20198;-82
2022/02/02 14:50:15;;;;;;;2.27;1.10;;;;;;;6.92;100.00;98818.97;4908595;29;20617;-82
2022/02/02 15:26:12;;;;;;;2.17;0.70;;;;;;;6.88;100.00;98855.03;4905627;29;20530;-81
2022/02/02 15:29:04;;;;;;;2.70;0.80;;;;;;;6.91;100.00;98859.94;4909521;29;20190;-82
2022/02/02 15:31:29;;;;;;;2.80;0.90;;;;;;;6.79;100.00;98850.19;4905563;29;20465;-82
2022/02/02 15:33:57;;;;;;;3.27;0.80;;;;;;;6.82;100.00;98863.06;4902523;29;20198;-81
2022/02/02 15:37:11;;;;;;;2.17;0.60;;;;;;;6.75;97.95;98862.28;4887202;29;20269;-81
2022/02/02 15:39:31;;;;;;;2.23;0.70;;;;;;;6.57;100.00;98860.34;4907243;29;20210;-82
2022/02/02 16:03:14;;;;;;;3.27;0.80;;;;;;;6.62;96.75;98937.72;4904392;29;20198;-81
2022/02/02 16:08:10;;;;;;;3.10;0.80;;;;;;;6.69;94.67;98941.16;4886381;29;20204;-82
2022/02/02 16:10:44;;;;;;;2.73;0.70;;;;;;;6.54;97.50;98952.06;4885340;29;20546;-81
2022/02/02 16:13:28;;;;;;;2.07;0.80;;;;;;;6.72;93.25;98967.34;4903365;29;20493;-80
2022/02/02 16:15:59;;;;;;;0.93;0.60;;;;;;;6.78;92.29;98955.03;4887988;29;20186;-81
2022/02/02 16:18:46;;;;;;;2.07;0.73;;;;;;;6.82;92.90;98970.38;4886534;29;20297;-81
2022/02/02 16:38:12;;;;;;;2.47;0.70;;;;;;;6.81;89.21;99032.63;4912671;29;20206;-81
2022/02/02 16:40:42;;;;;;;2.13;0.60;;;;;;;6.59;91.23;99032.09;4893848;29;20233;-82
2022/02/02 16:43:13;;;;;;;2.87;1.00;;;;;;;6.70;91.67;99069.75;4883008;29;20203;-81
2022/02/02 16:45:50;;;;;;;3.10;0.77;;;;;;;6.43;93.78;99053.00;4883292;29;20562;-80
2022/02/02 16:48:17;;;;;;;3.47;1.10;;;;;;;6.38;95.27;99058.13;4883122;29;20465;-81
2022/02/02 16:50:48;;;;;;;2.43;0.93;;;;;;;6.27;94.08;99051.59;4870143;29;20222;-81
2022/02/02 17:31:27;;;;;;;1.80;0.90;;;;;;;5.95;94.46;99121.53;4913818;29;20194;-81
2022/02/02 17:34:09;;;;;;;2.03;0.80;;;;;;;5.91;92.54;99093.72;4897271;29;20516;-81
2022/02/02 17:36:46;;;;;;;1.73;0.80;;;;;;;5.87;94.06;99119.09;4913423;29;20208;-82
2022/02/02 17:39:15;;;;;;;3.53;1.00;;;;;;;5.89;93.12;99125.00;4899035;29;20217;-81
2022/02/02 18:20:12;;;;;;;3.90;1.70;;;;;;;5.71;95.13;99218.56;4891828;29;20614;-81
2022/02/02 18:22:46;;;;;;;3.47;0.90;;;;;;;5.52;98.56;99219.31;4876736;29;20190;-81
2022/02/02 18:25:22;;;;;;;2.77;1.30;;;;;;;5.53;99.98;99216.47;4889354;29;20199;-81
2022/02/02 18:28:08;;;;;;;4.30;1.47;;;;;;;5.66;99.02;99226.31;4918147;29;20228;-81
2022/02/02 18:35:36;;;;;;;3.17;1.60;;;;;;;5.59;100.00;99244.91;4919148;29;20194;-80
2022/02/02 18:46:00;;;;;;;2.63;1.23;;;;;;;5.64;100.00;99282.34;4904663;29;20268;-81
2022/02/02 18:58:58;;;;;;;2.40;1.13;;;;;;;5.57;100.00;99299.25;4904076;29;20301;-81
2022/02/02 19:56:21;;;;;;;2.83;1.13;;;;;;;5.35;99.69;99407.44;4889912;29;20291;-80
2022/02/02 20:07:06;;;;;;;2.23;1.10;;;;;;;5.27;97.70;99416.34;4925598;29;20206;-81
2022/02/02 20:12:26;;;;;;;3.33;1.20;;;;;;;5.24;98.12;99427.34;4909776;29;20273;-80
2022/02/02 20:14:53;;;;;;;2.13;1.13;;;;;;;5.20;97.70;99427.94;4911012;29;20205;-81
2022/02/02 20:17:23;;;;;;;3.87;0.90;;;;;;;5.09;98.28;99431.91;4910241;29;20288;-82
2022/02/02 20:19:57;;;;;;;3.30;1.10;;;;;;;5.11;97.33;99440.50;4897420;29;20221;-81
2022/02/02 20:22:28;;;;;;;2.47;1.10;;;;;;;5.19;96.11;99451.00;4885243;29;20206;-81
2022/02/02 20:24:58;;;;;;;4.30;1.50;;;;;;;5.23;94.98;99459.41;4884528;29;20226;-81
2022/02/02 20:27:28;;;;;;;3.00;1.53;;;;;;;5.18;95.72;99464.50;4884435;29;20183;-80
2022/02/02 20:29:55;;;;;;;4.13;1.40;;;;;;;5.18;95.11;99467.94;4885091;29;20302;-80
2022/02/02 20:32:22;;;;;;;3.00;1.10;;;;;;;5.06;93.49;99458.84;4887614;29;20204;-81
2022/02/02 20:34:49;;;;;;;3.67;1.17;;;;;;;5.16;93.67;99477.13;4887480;29;20194;-80
2022/02/02 20:37:18;;;;;;;2.73;0.90;;;;;;;5.06;92.74;99476.59;4902721;29;20277;-82
2022/02/02 20:42:25;;;;;;;2.53;1.07;;;;;;;5.12;91.49;99492.63;4920968;29;20579;-81
2022/02/02 20:45:13;;;;;;;1.63;0.80;;;;;;;4.96;92.76;99487.53;4897543;29;20198;-82
2022/02/02 21:14:56;;;;;;;2.47;0.90;;;;;;;5.13;89.01;99518.16;4890835;29;20198;-80
2022/02/02 21:17:26;;;;;;;1.93;0.80;;;;;;;5.21;88.71;99518.06;4915675;29;20269;-81
2022/02/02 21:20:07;;;;;;;2.07;1.03;;;;;;;5.15;90.15;99518.78;4924907;29;20270;-81
2022/02/02 21:22:45;;;;;;;2.47;1.10;;;;;;;5.11;90.68;99533.47;4912075;29;20240;-81
2022/02/02 21:27:57;;;;;;;3.03;1.03;;;;;;;5.20;91.34;99524.38;4887528;29;20202;-81
2022/02/02 21:30:25;;;;;;;2.10;1.07;;;;;;;5.23;91.17;99533.78;4918662;29;20265;-81
2022/02/02 21:32:52;;;;;;;3.57;1.13;;;;;;;5.23;91.24;99526.63;4926095;29;20197;-81
2022/02/02 21:35:19;;;;;;;2.97;0.97;;;;;;;5.16;92.87;99517.78;4901818;29;20595;-80
2022/02/02 21:37:49;;;;;;;5.63;1.00;;;;;;;5.28;90.81;99508.31;4909605;29;20239;-80
2022/02/02 21:40:27;;;;;;;3.97;1.10;;;;;;;5.36;90.89;99511.88;4917999;29;20269;-81
2022/02/02 21:42:55;;;;;;;2.80;1.00;;;;;;;5.31;91.73;99510.59;4906259;29;20471;-81
2022/02/02 21:45:23;;;;;;;1.73;1.30;;;;;;;5.35;91.53;99499.59;4916967;29;20191;-81
2022/02/02 21:47:50;;;;;;;3.10;1.10;;;;;;;5.40;90.00;99508.66;4923305;29;20200;-80
2022/02/02 21:50:19;;;;;;;3.40;1.10;;;;;;;5.35;91.78;99526.97;4919828;29;20247;-81
2022/02/02 21:52:47;;;;;;;3.83;0.90;;;;;;;5.38;90.75;99531.09;4888146;29;20191;-81
2022/02/02 21:55:15;;;;;;;2.70;1.00;;;;;;;5.41;91.20;99530.72;4887540;29;20720;-83
2022/02/02 21:57:41;;;;;;;2.07;0.80;;;;;;;5.35;91.57;99521.66;4886929;29;20194;-80
2022/02/02 22:00:10;;;;;;;2.27;1.00;;;;;;;5.31;90.57;99526.53;4910716;29;20262;-81
2022/02/02 22:02:41;;;;;;;2.40;0.90;;;;;;;5.35;90.01;99536.78;4917825;29;20287;-81
2022/02/02 22:05:08;;;;;;;2.77;1.00;;;;;;;5.31;89.92;99533.69;4893514;29;20467;-81
2022/02/02 22:07:35;;;;;;;2.63;0.80;;;;;;;5.33;90.40;99539.63;4869252;29;20302;-82
2022/02/02 22:10:06;;;;;;;1.70;0.87;;;;;;;5.18;91.77;99547.63;4906989;29;20254;-81
2022/02/02 22:12:36;;;;;;;5.80;1.10;;;;;;;5.17;91.03;99547.84;4890829;29;20492;-82
2022/02/02 22:15:22;;;;;;;2.93;0.93;;;;;;;5.24;92.48;99551.38;4907067;29;20204;-81
2022/02/02 22:17:49;;;;;;;2.00;0.90;;;;;;;5.20;91.22;99547.44;4907682;29;20186;-80
2022/02/02 22:20:17;;;;;;;1.73;1.10;;;;;;;5.26;91.20;99550.19;4920006;29;20497;-81
2022/02/02 22:22:46;;;;;;;2.37;1.00;;;;;;;5.24;91.33;99549.53;4929591;29;20673;-81
2022/02/02 22:25:14;;;;;;;2.10;1.00;;;;;;;5.21;92.34;99551.75;4874451;29;20514;-80
2022/02/02 22:27:41;;;;;;;2.10;1.20;;;;;;;5.13;91.44;99550.00;4906464;29;20622;-81
2022/02/02 22:30:09;;;;;;;2.73;0.97;;;;;;;5.10;91.72;99545.09;4905722;29;20190;-82
2022/02/02 22:32:36;;;;;;;4.13;1.30;;;;;;;5.22;91.49;99566.69;4887357;29;20190;-82
2022/02/02 22:35:03;;;;;;;3.37;1.20;;;;;;;5.17;92.17;99575.22;4915957;29;20187;-82
2022/02/02 22:37:30;;;;;;;4.07;1.00;;;;;;;5.04;93.89;99569.72;4890895;29;20600;-82
2022/02/02 22:39:57;;;;;;;1.83;0.90;;;;;;;5.05;94.92;99575.84;4921972;29;20202;-80
2022/02/02 22:42:26;;;;;;;5.03;1.40;;;;;;;5.09;94.42;99574.47;4890878;29;20439;-81
2022/02/02 22:44:57;;;;;;;3.37;1.30;;;;;;;5.06;93.95;99574.84;4906492;29;20340;-81
2022/02/02 22:47:27;;;;;;;4.03;1.00;;;;;;;5.10;94.49;99582.25;4900379;29;20286;-81
2022/02/02 22:49:53;;;;;;;2.63;1.10;;;;;;;5.14;95.01;99586.19;4891140;29;20533;-82
2022/02/02 22:52:21;;;;;;;3.90;1.10;;;;;;;5.09;95.82;99593.06;4912468;29;20195;-80
2022/02/02 22:54:48;;;;;;;2.20;0.80;;;;;;;5.15;95.53;99598.47;4917147;29;20301;-81
2022/02/02 22:57:15;;;;;;;2.63;0.90;;;;;;;5.13;95.76;99613.75;4890047;29;20290;-80
2022/02/02 22:59:46;;;;;;;3.33;0.90;;;;;;;5.18;97.19;99618.53;4906063;29;20194;-81